Time;durP1;ratioP1;P1;durP2;ratioP2;P2;SDS_P1;SDS_P2;PMS_P1;PMS_P2;Temp;Humidity;BMP_temperature;BMP_pressure;BME280_temperature;BME280_humidity;BME280_pressure;Samples;Min_cycle;Max_cycle;Signal;HPM_P1;HPM_P2
2023/03/04 00:02:17;;;;;;;;;;;;;;;4.18;79.65;102164.78;4953695;28;19926;-77
2023/03/04 00:04:43;;;;;;;;;;;;;;;4.22;79.32;102163.41;4953107;28;19921;-80
2023/03/04 00:07:09;;;;;;;;;;;;;;;4.17;79.71;102156.00;4967630;28;19988;-76
2023/03/04 00:09:37;;;;;;;;;;;;;;;4.20;79.44;102144.19;4956670;28;19918;-77
2023/03/04 00:12:07;;;;;;;;;;;;;;;4.27;78.58;102150.38;4969186;28;20292;-77
2023/03/04 00:14:40;;;;;;;;;;;;;;;4.30;78.29;102158.75;4978480;28;20216;-77
2023/03/04 00:17:39;;;;;;;;;;;;;;;4.21;78.99;102146.66;4970709;28;20288;-78
2023/03/04 00:20:15;;;;;;;;;;;;;;;4.30;78.43;102152.63;4961021;28;19918;-76
2023/03/04 00:23:06;;;;;;;;;;;;;;;4.21;78.74;102157.28;4988768;28;20396;-76
2023/03/04 00:25:32;;;;;;;;;;;;;;;4.24;78.26;102154.22;4953579;28;19914;-76
2023/03/04 00:28:04;;;;;;;;;;;;;;;4.30;78.42;102155.28;4948421;28;19988;-76
2023/03/04 00:30:30;;;;;;;;;;;;;;;4.32;78.27;102153.25;4978309;28;20400;-76
2023/03/04 00:33:22;;;;;;;;;;;;;;;4.35;78.32;102155.53;4954076;28;19914;-77
2023/03/04 00:35:53;;;;;;;;;;;;;;;4.42;77.53;102134.38;4971099;28;19918;-77
2023/03/04 00:38:19;;;;;;;;;;;;;;;4.36;78.02;102133.28;4951386;28;19922;-77
2023/03/04 00:40:53;;;;;;;;;;;;;;;4.39;77.67;102144.31;4954902;28;19918;-77
2023/03/04 00:43:19;;;;;;;;;;;;;;;4.49;77.05;102137.88;4953264;28;20994;-78
2023/03/04 00:45:48;;;;;;;;;;;;;;;4.43;77.59;102128.84;4955730;28;19914;-76
2023/03/04 00:48:15;;;;;;;;;;;;;;;4.45;77.63;102132.13;4952092;28;19914;-79
2023/03/04 00:50:42;;;;;;;;;;;;;;;4.41;77.56;102130.88;4969985;28;19917;-77
2023/03/04 00:53:09;;;;;;;;;;;;;;;4.38;77.58;102126.78;4952182;28;20021;-76
2023/03/04 00:55:37;;;;;;;;;;;;;;;4.45;77.41;102126.81;4955020;28;19929;-77
2023/03/04 00:58:02;;;;;;;;;;;;;;;4.38;78.33;102116.16;4954409;28;19914;-77
2023/03/04 01:00:31;;;;;;;;;;;;;;;4.41;78.18;102114.16;4988649;28;19940;-77
2023/03/04 01:02:57;;;;;;;;;;;;;;;4.45;78.05;102121.50;4968663;28;20012;-77
2023/03/04 01:05:26;;;;;;;;;;;;;;;4.33;78.46;102112.44;4951785;28;19949;-78
2023/03/04 01:07:52;;;;;;;;;;;;;;;4.35;78.33;102108.59;4989822;22;20302;-72
2023/03/04 01:10:24;;;;;;;;;;;;;;;4.47;77.85;102114.19;5001089;28;19925;-72
2023/03/04 01:12:50;;;;;;;;;;;;;;;4.41;77.93;102107.00;4988914;28;20040;-71
2023/03/04 01:15:18;;;;;;;;;;;;;;;4.47;77.58;102110.69;4968568;28;20249;-72
2023/03/04 01:17:45;;;;;;;;;;;;;;;4.46;77.44;102106.41;4994565;28;19977;-73
2023/03/04 01:20:12;;;;;;;;;;;;;;;4.41;78.22;102109.66;4973275;28;19924;-71
2023/03/04 01:22:39;;;;;;;;;;;;;;;4.34;78.60;102099.03;5002737;28;19967;-71
2023/03/04 01:25:06;;;;;;;;;;;;;;;4.32;78.65;102100.22;4992541;28;19924;-71
2023/03/04 01:27:35;;;;;;;;;;;;;;;4.42;78.20;102100.69;4982422;28;20012;-72
2023/03/04 01:30:01;;;;;;;;;;;;;;;4.42;77.89;102095.38;4968911;28;19987;-71
2023/03/04 01:32:29;;;;;;;;;;;;;;;4.40;78.29;102092.09;4970147;28;19917;-71
2023/03/04 01:34:57;;;;;;;;;;;;;;;4.36;78.08;102080.25;4987706;28;19925;-72
2023/03/04 01:37:30;;;;;;;;;;;;;;;4.44;77.93;102079.28;4983859;28;19921;-71
2023/03/04 01:39:56;;;;;;;;;;;;;;;4.37;78.00;102085.34;4987074;28;19945;-71
2023/03/04 01:42:23;;;;;;;;;;;;;;;4.46;77.50;102078.03;4965870;28;20250;-71
2023/03/04 01:44:52;;;;;;;;;;;;;;;4.44;77.67;102061.50;4968023;28;20370;-71
2023/03/04 01:47:18;;;;;;;;;;;;;;;4.38;77.70;102060.47;4969228;28;19924;-72
2023/03/04 01:49:53;;;;;;;;;;;;;;;4.41;77.44;102056.63;4983358;28;19917;-72
2023/03/04 01:52:20;;;;;;;;;;;;;;;4.37;77.81;102056.19;4983725;28;19925;-73
2023/03/04 01:54:47;;;;;;;;;;;;;;;4.44;77.59;102056.22;4983429;28;20409;-71
2023/03/04 01:57:17;;;;;;;;;;;;;;;4.33;77.77;102060.22;4982902;28;19924;-71
2023/03/04 01:59:43;;;;;;;;;;;;;;;4.32;78.13;102055.13;4973784;28;19917;-74
2023/03/04 02:02:08;;;;;;;;;;;;;;;4.52;77.18;102058.69;5000205;28;20019;-71
2023/03/04 02:04:38;;;;;;;;;;;;;;;4.39;77.62;102050.66;4983976;28;19930;-74
2023/03/04 02:07:04;;;;;;;;;;;;;;;4.39;77.83;102055.97;4982608;28;19928;-71
2023/03/04 02:09:32;;;;;;;;;;;;;;;4.42;77.89;102042.34;4999340;28;19917;-71
2023/03/04 02:11:57;;;;;;;;;;;;;;;4.44;77.67;102050.91;4984870;28;19918;-71
2023/03/04 02:14:23;;;;;;;;;;;;;;;4.45;77.33;102039.28;4986075;28;19925;-72
2023/03/04 02:16:51;;;;;;;;;;;;;;;4.46;77.47;102032.94;4998399;28;19917;-74
2023/03/04 02:19:36;;;;;;;;;;;;;;;4.51;77.25;102041.13;4978910;28;20349;-73
2023/03/04 02:22:02;;;;;;;;;;;;;;;4.53;77.45;102028.50;4982531;28;19924;-72
2023/03/04 02:24:34;;;;;;;;;;;;;;;4.51;77.34;102029.72;4998100;28;19917;-72
2023/03/04 02:26:59;;;;;;;;;;;;;;;4.51;77.80;102025.22;4997620;28;19971;-72
2023/03/04 02:29:26;;;;;;;;;;;;;;;4.51;77.97;102019.91;4972992;28;19917;-71
2023/03/04 02:31:55;;;;;;;;;;;;;;;4.46;78.00;102011.72;4994301;28;19988;-72
2023/03/04 02:34:23;;;;;;;;;;;;;;;4.48;77.96;102015.03;4981780;28;20347;-72
2023/03/04 02:36:50;;;;;;;;;;;;;;;4.52;77.63;102016.25;4965322;28;19917;-72
2023/03/04 02:39:18;;;;;;;;;;;;;;;4.54;77.54;102019.53;4999418;28;20311;-71
2023/03/04 02:41:44;;;;;;;;;;;;;;;4.59;77.57;102001.16;4985953;28;19913;-71
2023/03/04 02:44:15;;;;;;;;;;;;;;;4.62;78.01;102014.06;4999996;28;20048;-72
2023/03/04 02:46:41;;;;;;;;;;;;;;;4.56;77.94;102012.19;5004275;28;19913;-71
2023/03/04 02:49:09;;;;;;;;;;;;;;;4.58;77.61;102004.03;5004416;28;20289;-70
2023/03/04 02:51:35;;;;;;;;;;;;;;;4.62;77.97;101999.97;5008802;28;19914;-72
2023/03/04 02:54:00;;;;;;;;;;;;;;;4.60;78.10;102000.16;4996947;28;19921;-73
2023/03/04 02:56:26;;;;;;;;;;;;;;;4.53;78.41;101991.34;5009197;28;19929;-74
2023/03/04 02:58:52;;;;;;;;;;;;;;;4.57;78.77;101991.78;5008830;28;20000;-71
2023/03/04 03:01:18;;;;;;;;;;;;;;;4.53;78.79;101991.34;4972677;28;20121;-73
2023/03/04 03:03:45;;;;;;;;;;;;;;;4.52;78.56;101984.41;5007560;28;19947;-71
2023/03/04 03:06:10;;;;;;;;;;;;;;;4.59;78.80;101985.25;4989227;28;20451;-72
2023/03/04 03:08:36;;;;;;;;;;;;;;;4.61;79.04;101988.53;5012232;28;19917;-71
2023/03/04 03:11:01;;;;;;;;;;;;;;;4.61;79.59;101980.59;5006016;28;19920;-71
2023/03/04 03:13:29;;;;;;;;;;;;;;;4.60;79.63;101981.56;5006246;28;19913;-71
2023/03/04 03:15:54;;;;;;;;;;;;;;;4.47;79.85;101981.56;4990861;28;19929;-72
2023/03/04 03:18:22;;;;;;;;;;;;;;;4.51;79.89;101974.81;5002523;28;19917;-71
2023/03/04 03:20:49;;;;;;;;;;;;;;;4.51;79.79;101980.13;5006985;28;19975;-71
2023/03/04 03:23:16;;;;;;;;;;;;;;;4.57;79.71;101971.38;5004696;28;19939;-74
2023/03/04 03:25:49;;;;;;;;;;;;;;;4.60;79.47;101972.78;4990937;28;20279;-71
2023/03/04 03:28:14;;;;;;;;;;;;;;;4.57;79.89;101976.69;5008419;28;19925;-71
2023/03/04 03:30:40;;;;;;;;;;;;;;;4.61;79.99;101971.81;5007526;28;19917;-72
2023/03/04 03:33:05;;;;;;;;;;;;;;;4.57;80.02;101973.22;5003612;28;20402;-71
2023/03/04 03:35:37;;;;;;;;;;;;;;;4.49;80.63;101978.69;5005023;28;20367;-72
2023/03/04 03:38:03;;;;;;;;;;;;;;;4.55;80.60;101985.88;4987754;28;19921;-71
2023/03/04 03:40:28;;;;;;;;;;;;;;;4.56;80.24;101972.41;5019780;28;19929;-71
2023/03/04 03:42:57;;;;;;;;;;;;;;;4.47;80.40;101970.94;4994328;28;19917;-72
2023/03/04 03:45:22;;;;;;;;;;;;;;;4.50;80.46;101970.53;5007077;28;19920;-72
2023/03/04 03:47:48;;;;;;;;;;;;;;;4.47;80.60;101970.94;4991057;28;19917;-71
2023/03/04 03:50:13;;;;;;;;;;;;;;;4.43;80.49;101956.44;5000400;28;19913;-71
2023/03/04 03:52:39;;;;;;;;;;;;;;;4.42;80.86;101959.28;5008004;28;19918;-73
2023/03/04 03:55:04;;;;;;;;;;;;;;;4.41;81.50;101958.47;5007401;28;19924;-72
2023/03/04 03:57:30;;;;;;;;;;;;;;;4.35;81.76;101968.03;5005126;28;19921;-72
2023/03/04 03:59:56;;;;;;;;;;;;;;;4.33;82.52;101971.88;5011345;28;19913;-71
2023/03/04 04:02:22;;;;;;;;;;;;;;;4.35;82.42;101967.22;4992860;28;20266;-71
2023/03/04 04:04:48;;;;;;;;;;;;;;;4.35;82.67;101956.63;5011116;28;19917;-72
2023/03/04 04:07:14;;;;;;;;;;;;;;;4.31;83.06;101971.28;4971798;28;20382;-73
2023/03/04 04:09:39;;;;;;;;;;;;;;;4.35;82.46;101956.63;5005552;28;19936;-74
2023/03/04 04:12:05;;;;;;;;;;;;;;;4.33;81.79;101953.31;4989418;28;19918;-72
2023/03/04 04:14:31;;;;;;;;;;;;;;;4.32;82.16;101957.81;5006451;28;19925;-71
2023/03/04 04:16:56;;;;;;;;;;;;;;;4.29;81.86;101957.41;5004278;28;20003;-71
2023/03/04 04:19:22;;;;;;;;;;;;;;;4.32;81.96;101947.19;5003896;28;19918;-71
2023/03/04 04:21:47;;;;;;;;;;;;;;;4.39;80.74;101939.28;4983924;28;19939;-72
2023/03/04 04:24:13;;;;;;;;;;;;;;;4.33;80.99;101948.84;4974096;28;19921;-71
2023/03/04 04:26:39;;;;;;;;;;;;;;;4.29;81.46;101955.56;5004949;28;20703;-73
2023/03/04 04:29:05;;;;;;;;;;;;;;;4.30;81.22;101957.19;4986655;28;19917;-72
2023/03/04 04:31:30;;;;;;;;;;;;;;;4.28;80.97;101948.63;4973689;28;19917;-72
2023/03/04 04:33:56;;;;;;;;;;;;;;;4.36;81.05;101929.06;5005609;28;19924;-73
2023/03/04 04:36:21;;;;;;;;;;;;;;;4.41;80.04;101937.25;5002219;28;20030;-71
2023/03/04 04:38:48;;;;;;;;;;;;;;;4.56;78.21;101931.78;5007889;28;19917;-73
2023/03/04 04:41:17;;;;;;;;;;;;;;;4.59;76.99;101932.19;5006633;28;19921;-72
2023/03/04 04:43:42;;;;;;;;;;;;;;;4.59;78.28;101941.97;4991038;28;19947;-73
2023/03/04 04:46:08;;;;;;;;;;;;;;;4.55;78.42;101930.97;4976562;28;20520;-72
2023/03/04 04:48:34;;;;;;;;;;;;;;;4.56;79.27;101939.75;5025851;28;19924;-71
2023/03/04 04:51:02;;;;;;;;;;;;;;;4.54;79.46;101933.78;4978075;28;19917;-71
2023/03/04 04:53:30;;;;;;;;;;;;;;;4.53;78.67;101935.63;5011071;28;19961;-73
2023/03/04 04:55:56;;;;;;;;;;;;;;;4.51;78.98;101926.25;5009569;28;19924;-72
2023/03/04 04:58:21;;;;;;;;;;;;;;;4.56;78.44;101932.59;4977668;28;20383;-72
2023/03/04 05:00:47;;;;;;;;;;;;;;;4.51;78.46;101924.41;5010333;28;19918;-71
2023/03/04 05:03:15;;;;;;;;;;;;;;;4.53;78.12;101919.72;5004022;28;19917;-71
2023/03/04 05:05:41;;;;;;;;;;;;;;;4.48;78.50;101919.53;4992591;28;20371;-71
2023/03/04 05:08:07;;;;;;;;;;;;;;;4.47;78.57;101917.06;5013129;28;19948;-71
2023/03/04 05:10:32;;;;;;;;;;;;;;;4.40;79.83;101922.34;5008797;28;19968;-71
2023/03/04 05:12:58;;;;;;;;;;;;;;;4.44;79.56;101936.84;4990137;28;19932;-71
2023/03/04 05:15:23;;;;;;;;;;;;;;;4.50;80.00;101928.09;4987383;28;19925;-71
2023/03/04 05:17:49;;;;;;;;;;;;;;;4.44;81.17;101936.84;4975008;28;19913;-72
2023/03/04 05:20:15;;;;;;;;;;;;;;;4.34;82.58;101931.13;4978229;28;20262;-71
2023/03/04 05:22:40;;;;;;;;;;;;;;;4.29;83.29;101923.75;5008601;28;20272;-75
2023/03/04 05:25:06;;;;;;;;;;;;;;;4.19;83.83;101925.13;5001703;28;19971;-71
2023/03/04 05:27:32;;;;;;;;;;;;;;;4.18;83.94;101923.50;5004259;28;19917;-71
2023/03/04 05:30:01;;;;;;;;;;;;;;;4.14;84.31;101932.88;5003228;28;20379;-71
2023/03/04 05:32:26;;;;;;;;;;;;;;;4.03;84.34;101921.00;5005924;28;19924;-71
2023/03/04 05:34:52;;;;;;;;;;;;;;;4.04;83.91;101918.13;4987362;28;19922;-71
2023/03/04 05:37:18;;;;;;;;;;;;;;;4.07;83.95;101925.72;4987726;28;19918;-71
2023/03/04 05:39:43;;;;;;;;;;;;;;;4.05;83.92;101930.38;5003216;28;19917;-71
2023/03/04 05:42:09;;;;;;;;;;;;;;;4.05;83.59;101934.84;4988297;28;19917;-72
2023/03/04 05:44:34;;;;;;;;;;;;;;;4.11;83.07;101932.22;5003818;28;19920;-71
2023/03/04 05:47:00;;;;;;;;;;;;;;;4.13;83.11;101933.88;5003372;28;19939;-71
2023/03/04 05:49:25;;;;;;;;;;;;;;;4.20;82.03;101937.34;4987006;28;20419;-71
2023/03/04 05:51:51;;;;;;;;;;;;;;;4.19;82.05;101941.84;4988807;28;19921;-72
2023/03/04 05:54:16;;;;;;;;;;;;;;;4.22;81.15;101935.34;4987219;28;20019;-71
2023/03/04 05:56:42;;;;;;;;;;;;;;;4.24;81.21;101936.78;5009562;28;20291;-71
2023/03/04 05:59:07;;;;;;;;;;;;;;;4.26;79.61;101925.97;5015040;28;19921;-71
2023/03/04 06:01:33;;;;;;;;;;;;;;;4.31;75.62;101937.63;5008640;28;19917;-72
2023/03/04 06:03:59;;;;;;;;;;;;;;;4.25;74.89;101926.97;5007970;28;19913;-72
2023/03/04 06:06:25;;;;;;;;;;;;;;;4.32;72.09;101935.78;4996451;28;19928;-70
2023/03/04 06:08:51;;;;;;;;;;;;;;;4.30;72.73;101930.69;4998770;28;20386;-70
2023/03/04 06:11:16;;;;;;;;;;;;;;;4.24;73.59;101944.72;5003348;28;20354;-70
2023/03/04 06:13:42;;;;;;;;;;;;;;;4.22;73.37;101933.50;5006159;28;19939;-70
2023/03/04 06:16:08;;;;;;;;;;;;;;;4.22;73.53;101938.81;4982116;28;19949;-72
2023/03/04 06:18:34;;;;;;;;;;;;;;;4.16;74.21;101941.44;4985064;28;19961;-71
2023/03/04 06:21:10;;;;;;;;;;;;;;;4.17;74.43;101940.41;5000001;28;20023;-70
2023/03/04 06:23:36;;;;;;;;;;;;;;;4.27;73.23;101938.22;4972181;28;19924;-70
2023/03/04 06:26:02;;;;;;;;;;;;;;;4.34;73.15;101933.75;5004181;28;19913;-70
2023/03/04 06:28:28;;;;;;;;;;;;;;;4.36;71.44;101929.06;4985630;28;20382;-71
2023/03/04 06:30:57;;;;;;;;;;;;;;;4.52;69.98;101944.63;5003545;28;19917;-70
2023/03/04 06:33:23;;;;;;;;;;;;;;;4.55;70.49;101944.22;4995590;28;20394;-72
2023/03/04 06:35:52;;;;;;;;;;;;;;;4.49;70.17;101937.06;5005050;28;19922;-71
2023/03/04 06:38:17;;;;;;;;;;;;;;;4.55;68.77;101944.22;4985330;28;19917;-71
2023/03/04 06:40:44;;;;;;;;;;;;;;;4.52;67.83;101949.09;4985267;28;19924;-71
2023/03/04 06:43:10;;;;;;;;;;;;;;;4.50;68.54;101944.00;5006083;28;19917;-71
2023/03/04 06:45:37;;;;;;;;;;;;;;;4.40;68.59;101962.13;5015212;28;19928;-72
2023/03/04 06:48:03;;;;;;;;;;;;;;;4.36;67.68;101959.06;5006707;28;19917;-71
2023/03/04 06:50:28;;;;;;;;;;;;;;;4.39;67.76;101963.97;4995817;28;20429;-70
2023/03/04 06:52:55;;;;;;;;;;;;;;;4.38;67.66;101957.03;5003851;28;19921;-72
2023/03/04 06:55:20;;;;;;;;;;;;;;;4.34;68.31;101954.97;4970376;28;20391;-71
2023/03/04 06:57:46;;;;;;;;;;;;;;;4.37;67.87;101963.34;4982286;28;19924;-72
2023/03/04 07:00:12;;;;;;;;;;;;;;;4.32;67.90;101954.34;4986133;28;20034;-71
2023/03/04 07:02:37;;;;;;;;;;;;;;;4.32;68.65;101967.59;5008024;28;20051;-71
2023/03/04 07:05:03;;;;;;;;;;;;;;;4.38;68.02;101982.72;5003339;28;19917;-70
2023/03/04 07:07:28;;;;;;;;;;;;;;;4.43;67.82;101975.00;4998510;28;19913;-71
2023/03/04 07:09:54;;;;;;;;;;;;;;;4.37;69.08;101965.19;4984655;28;20478;-72
2023/03/04 07:12:19;;;;;;;;;;;;;;;4.36;69.59;101966.19;4963875;28;20077;-71
2023/03/04 07:14:45;;;;;;;;;;;;;;;4.36;68.30;101980.28;5001104;28;19921;-70
2023/03/04 07:17:11;;;;;;;;;;;;;;;4.34;69.56;101976.19;4970835;28;19917;-72
2023/03/04 07:19:36;;;;;;;;;;;;;;;4.39;69.89;101973.75;5005003;28;19957;-71
2023/03/04 07:22:02;;;;;;;;;;;;;;;4.34;70.13;101981.50;5001112;28;19921;-72
2023/03/04 07:24:28;;;;;;;;;;;;;;;4.34;69.90;101984.97;5005379;28;20051;-70
2023/03/04 07:26:53;;;;;;;;;;;;;;;4.36;69.85;101972.31;4988082;28;20378;-70
2023/03/04 07:29:19;;;;;;;;;;;;;;;4.47;70.95;101984.22;5002248;28;19943;-70
2023/03/04 07:31:45;;;;;;;;;;;;;;;4.46;70.03;101985.19;5001083;28;19975;-70
2023/03/04 07:34:12;;;;;;;;;;;;;;;4.35;71.12;101988.44;4986801;28;19925;-70
2023/03/04 07:36:37;;;;;;;;;;;;;;;4.48;69.81;101982.38;5001587;28;19944;-70
2023/03/04 07:39:03;;;;;;;;;;;;;;;4.42;69.95;101973.38;4989216;28;20454;-70
2023/03/04 07:41:29;;;;;;;;;;;;;;;4.49;69.27;101978.69;5004563;28;19980;-71
2023/03/04 07:43:56;;;;;;;;;;;;;;;4.44;68.91;101976.63;5006826;28;19960;-71
2023/03/04 07:46:22;;;;;;;;;;;;;;;4.49;69.53;101979.50;4987824;28;20320;-70
2023/03/04 07:48:47;;;;;;;;;;;;;;;4.49;70.31;101984.00;5008561;28;19918;-71
2023/03/04 07:51:18;;;;;;;;;;;;;;;4.53;68.94;101979.91;5007766;28;19932;-71
2023/03/04 07:53:46;;;;;;;;;;;;;;;4.56;69.46;101990.97;5003762;28;19918;-71
2023/03/04 07:56:13;;;;;;;;;;;;;;;4.58;69.72;101991.56;5005388;28;19921;-71
2023/03/04 07:58:40;;;;;;;;;;;;;;;4.62;68.71;101984.88;5003435;28;20013;-70
2023/03/04 08:01:13;;;;;;;;;;;;;;;4.61;68.09;101985.88;4970884;28;19917;-71
2023/03/04 08:03:38;;;;;;;;;;;;;;;4.63;68.48;101989.16;5008326;28;20422;-71
2023/03/04 08:06:05;;;;;;;;;;;;;;;4.66;67.40;101988.75;5006356;28;19924;-71
2023/03/04 08:08:31;;;;;;;;;;;;;;;4.69;67.43;101994.69;5014720;28;20015;-71
2023/03/04 08:10:57;;;;;;;;;;;;;;;4.64;67.90;101990.78;5002785;28;19924;-71
2023/03/04 08:13:22;;;;;;;;;;;;;;;4.79;68.15;101990.63;4972090;28;19967;-71
2023/03/04 08:15:48;;;;;;;;;;;;;;;4.72;66.20;101978.34;5003684;28;19921;-71
2023/03/04 08:18:14;;;;;;;;;;;;;;;4.85;66.75;101994.31;5006978;28;19925;-74
2023/03/04 08:20:42;;;;;;;;;;;;;;;4.93;66.58;101986.16;5004886;28;19924;-72
2023/03/04 08:23:09;;;;;;;;;;;;;;;4.98;65.77;101993.53;5005364;28;20375;-71
2023/03/04 08:25:37;;;;;;;;;;;;;;;4.99;65.32;101990.66;4984095;28;20000;-71
2023/03/04 08:28:03;;;;;;;;;;;;;;;5.11;64.33;102004.97;4991927;28;20417;-71
2023/03/04 08:30:28;;;;;;;;;;;;;;;5.00;64.02;101999.44;5004590;28;19914;-72
2023/03/04 08:32:54;;;;;;;;;;;;;;;4.87;65.43;102009.00;5006482;28;19921;-72
2023/03/04 08:35:19;;;;;;;;;;;;;;;4.81;65.01;102003.69;4986952;28;20088;-71
2023/03/04 08:37:45;;;;;;;;;;;;;;;4.89;63.66;102006.16;4989259;28;19917;-72
2023/03/04 08:40:14;;;;;;;;;;;;;;;4.75;64.86;102015.13;5003836;28;19917;-71
2023/03/04 08:42:40;;;;;;;;;;;;;;;4.65;63.05;102005.69;5005615;28;19922;-71
2023/03/04 08:45:06;;;;;;;;;;;;;;;4.67;64.62;102024.06;4987529;28;20370;-71
2023/03/04 08:47:31;;;;;;;;;;;;;;;4.77;66.73;102016.53;5000743;28;19924;-71
2023/03/04 08:49:57;;;;;;;;;;;;;;;4.72;66.03;102016.31;5005647;28;20532;-70
2023/03/04 08:52:23;;;;;;;;;;;;;;;4.85;65.84;102013.69;5001051;28;19918;-71
2023/03/04 08:54:48;;;;;;;;;;;;;;;4.81;65.60;102024.91;5008688;28;20379;-71
2023/03/04 08:57:14;;;;;;;;;;;;;;;4.86;64.56;102017.19;5006844;28;19923;-70
2023/03/04 08:59:39;;;;;;;;;;;;;;;4.65;64.76;102010.16;5002016;28;20401;-71
2023/03/04 09:02:08;;;;;;;;;;;;;;;4.66;66.67;102017.94;5001807;28;20612;-70
2023/03/04 09:04:34;;;;;;;;;;;;;;;4.74;65.98;102011.66;4981499;28;19921;-70
2023/03/04 09:07:00;;;;;;;;;;;;;;;4.73;64.87;102003.88;4973327;28;19925;-70
2023/03/04 09:09:25;;;;;;;;;;;;;;;4.71;66.74;102019.19;5003520;28;19949;-70
2023/03/04 09:11:51;;;;;;;;;;;;;;;4.74;66.84;102010.81;5003619;28;19917;-70
2023/03/04 09:14:16;;;;;;;;;;;;;;;4.89;63.93;102016.78;4988886;28;19917;-70
2023/03/04 09:16:42;;;;;;;;;;;;;;;4.99;64.11;102005.78;5002304;28;19973;-71
2023/03/04 09:19:07;;;;;;;;;;;;;;;4.91;63.36;102012.91;4983459;28;19913;-70
2023/03/04 09:21:33;;;;;;;;;;;;;;;4.73;63.67;102011.81;5019626;28;19925;-71
2023/03/04 09:23:59;;;;;;;;;;;;;;;4.88;64.12;102009.84;4977432;28;19917;-70
2023/03/04 09:26:25;;;;;;;;;;;;;;;4.98;63.67;102012.09;5006446;28;20404;-70
2023/03/04 09:28:52;;;;;;;;;;;;;;;5.03;62.61;102002.53;5004900;28;19917;-70
2023/03/04 09:31:17;;;;;;;;;;;;;;;5.11;62.63;102010.28;4992172;28;19913;-70
2023/03/04 09:33:43;;;;;;;;;;;;;;;5.18;63.17;102012.94;5004789;28;19917;-72
2023/03/04 09:36:10;;;;;;;;;;;;;;;5.07;61.71;102019.66;4984406;28;19921;-72
2023/03/04 09:38:37;;;;;;;;;;;;;;;5.19;62.03;102012.75;5000468;28;20008;-70
2023/03/04 09:41:08;;;;;;;;;;;;;;;4.86;62.32;102002.06;5007423;28;19916;-70
2023/03/04 09:43:36;;;;;;;;;;;;;;;4.94;62.29;102011.66;4998335;28;20401;-71
2023/03/04 09:46:03;;;;;;;;;;;;;;;5.03;62.04;102007.81;5014247;28;19914;-70
2023/03/04 09:48:35;;;;;;;;;;;;;;;5.11;61.20;102014.78;4973147;28;19918;-71
2023/03/04 09:51:06;;;;;;;;;;;;;;;5.14;62.76;102015.19;5002891;28;20291;-71
2023/03/04 09:53:38;;;;;;;;;;;;;;;5.11;62.08;102017.44;5002896;28;19982;-71
2023/03/04 09:56:04;;;;;;;;;;;;;;;5.11;61.93;102012.94;5000929;28;19925;-71
2023/03/04 09:58:39;;;;;;;;;;;;;;;5.17;62.77;102009.47;5003337;28;20286;-71
2023/03/04 10:01:09;;;;;;;;;;;;;;;4.94;63.10;102009.03;5006823;28;19921;-70
2023/03/04 10:03:42;;;;;;;;;;;;;;;5.06;62.46;102012.72;5019077;28;19924;-70
2023/03/04 10:06:15;;;;;;;;;;;;;;;4.97;62.02;102005.16;4988032;28;19921;-70
2023/03/04 10:08:44;;;;;;;;;;;;;;;4.95;63.96;102018.66;5001586;28;19968;-72
2023/03/04 10:11:15;;;;;;;;;;;;;;;5.03;63.45;102004.34;5003905;28;20272;-71
2023/03/04 10:13:46;;;;;;;;;;;;;;;5.04;63.67;102009.47;5001163;28;20004;-71
2023/03/04 10:16:14;;;;;;;;;;;;;;;4.98;62.54;101994.34;4989140;28;19921;-72
2023/03/04 10:18:46;;;;;;;;;;;;;;;5.12;63.41;102022.53;4999631;28;20004;-71
2023/03/04 10:21:13;;;;;;;;;;;;;;;5.17;62.63;102009.47;5006282;28;19963;-72
2023/03/04 10:23:40;;;;;;;;;;;;;;;5.50;62.15;102014.00;4994934;28;19913;-71
2023/03/04 10:26:11;;;;;;;;;;;;;;;5.66;62.08;102018.88;5001402;28;19917;-73
2023/03/04 10:28:40;;;;;;;;;;;;;;;5.81;60.29;102004.56;4997752;28;19917;-70
2023/03/04 10:31:11;;;;;;;;;;;;;;;5.66;60.02;101999.47;4999000;28;20028;-70
2023/03/04 10:33:38;;;;;;;;;;;;;;;5.97;60.89;102006.81;4997735;28;19924;-73
2023/03/04 10:36:05;;;;;;;;;;;;;;;5.74;60.20;101994.75;5001478;28;20736;-71
2023/03/04 10:38:33;;;;;;;;;;;;;;;5.80;58.65;102008.25;4991620;28;20000;-71
2023/03/04 10:41:00;;;;;;;;;;;;;;;5.80;59.35;102010.91;5006150;28;19936;-71
2023/03/04 10:43:25;;;;;;;;;;;;;;;5.95;59.07;102016.84;4984655;28;19913;-71
2023/03/04 10:45:57;;;;;;;;;;;;;;;5.99;58.68;102020.72;4969627;28;19924;-70
2023/03/04 10:48:24;;;;;;;;;;;;;;;5.81;60.00;102008.03;5001908;28;19926;-70
2023/03/04 10:50:50;;;;;;;;;;;;;;;5.96;59.74;101994.53;5006943;28;19932;-73
2023/03/04 10:53:42;;;;;;;;;;;;;;;5.97;58.80;102004.16;5001888;28;19917;-70
2023/03/04 10:56:26;;;;;;;;;;;;;;;6.08;59.58;102003.50;4996864;28;19975;-71
2023/03/04 10:58:51;;;;;;;;;;;;;;;6.08;59.11;102014.16;5002518;28;19917;-71
2023/03/04 11:01:24;;;;;;;;;;;;;;;5.85;58.55;102011.09;5001090;28;19923;-71
2023/03/04 11:03:50;;;;;;;;;;;;;;;5.89;59.69;102001.69;5002508;28;19915;-71
2023/03/04 11:06:21;;;;;;;;;;;;;;;6.18;58.06;102006.56;5008674;28;19936;-72
2023/03/04 11:08:54;;;;;;;;;;;;;;;6.38;58.75;102008.34;5004295;28;19921;-72
2023/03/04 11:11:23;;;;;;;;;;;;;;;6.58;55.45;102003.75;5010066;28;20436;-71
2023/03/04 11:13:51;;;;;;;;;;;;;;;6.83;55.31;102019.78;5005357;28;19928;-71
2023/03/04 11:16:29;;;;;;;;;;;;;;;6.58;55.33;102001.09;4991131;28;19921;-71
2023/03/04 11:19:02;;;;;;;;;;;;;;;6.71;53.74;102001.03;5009661;28;19952;-70
2023/03/04 11:21:30;;;;;;;;;;;;;;;6.89;54.45;101996.81;4991051;28;20039;-70
2023/03/04 11:24:03;;;;;;;;;;;;;;;6.74;53.57;102003.25;5015591;28;19936;-71
2023/03/04 11:26:38;;;;;;;;;;;;;;;7.00;53.92;102009.47;5003118;28;19914;-71
2023/03/04 11:29:07;;;;;;;;;;;;;;;6.77;52.99;102008.16;4989568;28;19923;-70
2023/03/04 11:31:39;;;;;;;;;;;;;;;6.61;51.72;101998.00;4989964;28;19961;-72
2023/03/04 11:34:14;;;;;;;;;;;;;;;6.32;52.82;101995.88;5005465;28;19978;-71
2023/03/04 11:36:49;;;;;;;;;;;;;;;6.35;53.51;101984.81;4993520;28;20359;-69
2023/03/04 11:39:36;;;;;;;;;;;;;;;6.29;54.25;101991.78;5007615;28;20375;-71
2023/03/04 11:42:04;;;;;;;;;;;;;;;6.53;54.90;101992.91;4961559;28;19913;-71
2023/03/04 11:44:29;;;;;;;;;;;;;;;6.56;52.09;101997.81;5006802;28;20547;-69
2023/03/04 11:47:16;;;;;;;;;;;;;;;6.38;52.78;101995.03;5012358;28;20004;-70
2023/03/04 11:49:51;;;;;;;;;;;;;;;6.37;54.10;101994.22;5008676;28;19918;-70
2023/03/04 11:52:35;;;;;;;;;;;;;;;6.10;53.65;101992.69;5013209;28;19944;-70
2023/03/04 11:55:07;;;;;;;;;;;;;;;6.38;54.47;101995.03;5001795;28;19971;-70
2023/03/04 11:57:47;;;;;;;;;;;;;;;6.46;54.77;101990.28;5004464;28;20298;-71
2023/03/04 12:00:18;;;;;;;;;;;;;;;6.39;55.88;101980.69;5009442;28;19917;-71
2023/03/04 12:02:53;;;;;;;;;;;;;;;6.66;55.35;101987.53;5007104;28;19921;-70
2023/03/04 12:05:29;;;;;;;;;;;;;;;6.62;55.19;101986.31;5007343;28;19968;-72
2023/03/04 12:08:01;;;;;;;;;;;;;;;6.73;54.22;101988.31;5021382;28;19917;-70
2023/03/04 12:10:27;;;;;;;;;;;;;;;6.83;54.37;101985.97;5025933;28;19921;-69
2023/03/04 12:12:58;;;;;;;;;;;;;;;7.23;53.89;101972.41;5009417;28;19917;-70
2023/03/04 12:15:26;;;;;;;;;;;;;;;7.14;54.71;101972.88;5005283;28;19921;-71
2023/03/04 12:18:01;;;;;;;;;;;;;;;7.12;54.26;101970.44;5002755;28;19914;-71
2023/03/04 12:20:45;;;;;;;;;;;;;;;7.46;53.14;101965.66;5004653;28;19999;-71
2023/03/04 12:23:30;;;;;;;;;;;;;;;7.30;54.90;101957.16;4986247;28;19917;-70
2023/03/04 12:26:02;;;;;;;;;;;;;;;7.17;54.20;101954.59;4985862;28;19918;-71
2023/03/04 12:28:52;;;;;;;;;;;;;;;7.20;53.67;101972.03;5002347;28;20438;-70
2023/03/04 12:31:20;;;;;;;;;;;;;;;6.89;56.60;101959.53;5000708;28;19921;-71
2023/03/04 12:33:58;;;;;;;;;;;;;;;6.95;55.16;101954.16;4999154;28;20373;-71
2023/03/04 12:36:29;;;;;;;;;;;;;;;6.64;56.75;101955.00;5002307;28;20395;-70
2023/03/04 12:39:18;;;;;;;;;;;;;;;6.51;57.11;101955.06;5005432;28;20394;-71
2023/03/04 12:41:56;;;;;;;;;;;;;;;6.49;57.56;101954.44;4968615;28;19917;-70
2023/03/04 12:44:22;;;;;;;;;;;;;;;6.56;57.34;101941.91;5003717;28;19917;-72
2023/03/04 12:47:07;;;;;;;;;;;;;;;6.47;56.64;101951.19;4988937;28;20001;-70
2023/03/04 12:49:32;;;;;;;;;;;;;;;6.34;57.42;101944.06;5002980;28;19964;-72
2023/03/04 12:52:04;;;;;;;;;;;;;;;6.39;56.59;101938.94;5003541;28;19959;-71
2023/03/04 12:54:31;;;;;;;;;;;;;;;6.39;57.63;101938.94;5007083;28;20264;-71